Time;durP1;ratioP1;P1;durP2;ratioP2;P2;SDS_P1;SDS_P2;PMS_P1;PMS_P2;Temp;Humidity;BMP_temperature;BMP_pressure;BME280_temperature;BME280_humidity;BME280_pressure;Samples;Min_cycle;Max_cycle;Signal;HPM_P1;HPM_P2
2022/12/20 10:54:18;;;;;;;2.83;1.10;;;10.90;99.90;;;;;;6279731;22;20095;-92
2022/12/20 13:29:57;;;;;;;3.83;1.73;;;10.50;99.90;;;;;;6339494;22;20023;-95
2022/12/20 13:33:13;;;;;;;;;;;;;;;;;;;;;
2022/12/20 14:14:53;;;;;;;4.93;2.55;;;10.70;99.90;;;;;;6278151;22;20309;-95
2022/12/20 14:17:52;;;;;;;5.75;2.97;;;10.70;99.90;;;;;;6252852;22;20075;-96
2022/12/20 14:56:33;;;;;;;6.15;3.53;;;10.70;99.90;;;;;;6259986;22;20357;-90
2022/12/20 14:59:12;;;;;;;6.37;4.03;;;10.70;99.90;;;;;;6229889;22;20051;-88
2022/12/20 15:01:38;;;;;;;8.45;4.00;;;10.70;99.90;;;;;;6229235;22;20011;-88
2022/12/20 15:04:20;;;;;;;7.47;4.37;;;10.70;99.90;;;;;;6230022;22;20437;-89
2022/12/20 15:06:47;;;;;;;6.68;3.90;;;10.70;99.90;;;;;;6231443;22;20015;-89
2022/12/20 15:09:16;;;;;;;9.02;4.15;;;10.70;99.90;;;;;;6230650;22;20101;-94
2022/12/20 15:12:03;;;;;;;8.18;4.70;;;10.70;99.90;;;;;;6233392;22;20024;-93
2022/12/20 15:14:38;;;;;;;8.05;4.07;;;10.70;99.90;;;;;;6228086;22;20018;-93
2022/12/20 15:17:22;;;;;;;10.10;4.45;;;10.70;99.90;;;;;;6232652;22;20020;-89
2022/12/20 15:19:50;;;;;;;7.30;4.10;;;10.60;99.90;;;;;;6207408;22;20020;-90
2022/12/20 15:22:17;;;;;;;9.02;4.72;;;10.60;99.90;;;;;;6182294;22;20016;-91
2022/12/20 15:24:43;;;;;;;8.13;4.47;;;10.60;99.90;;;;;;6230743;22;20158;-94
2022/12/20 15:27:15;;;;;;;8.30;4.63;;;10.60;99.90;;;;;;6231811;22;20019;-96
2022/12/20 15:30:18;;;;;;;8.98;5.60;;;10.70;99.90;;;;;;6208805;22;20012;-91
2022/12/20 15:32:44;;;;;;;9.70;5.30;;;10.70;99.90;;;;;;6232290;22;20346;-95
2022/12/20 15:35:14;;;;;;;9.38;4.60;;;10.60;99.90;;;;;;6235402;22;20019;-90
2022/12/20 15:37:40;;;;;;;8.35;4.65;;;10.60;99.90;;;;;;6231888;22;20069;-91
2022/12/20 15:40:14;;;;;;;9.13;5.25;;;10.60;99.90;;;;;;6257150;22;20027;-90
2022/12/20 15:42:43;;;;;;;8.80;5.03;;;10.60;99.90;;;;;;6238562;22;20008;-89
2022/12/20 15:45:14;;;;;;;8.73;5.00;;;10.60;99.90;;;;;;6239064;22;20030;-94
2022/12/20 15:47:39;;;;;;;9.45;5.20;;;10.60;99.90;;;;;;6239358;22;20023;-95
2022/12/20 15:50:09;;;;;;;10.07;5.80;;;10.60;99.90;;;;;;6216030;22;20016;-89
2022/12/20 15:52:35;;;;;;;10.35;5.22;;;10.60;99.90;;;;;;6235597;22;20440;-95
2022/12/20 15:55:00;;;;;;;10.07;5.65;;;10.60;99.90;;;;;;6234295;22;20018;-94
2022/12/20 15:57:29;;;;;;;10.20;5.75;;;10.60;99.90;;;;;;6251757;23;20461;-95
2022/12/20 15:59:55;;;;;;;10.68;6.10;;;10.60;99.90;;;;;;6203308;23;20020;-90
2022/12/20 16:02:24;;;;;;;10.97;6.10;;;10.60;99.90;;;;;;6206160;23;20024;-94
2022/12/20 16:04:54;;;;;;;9.65;5.72;;;10.60;99.90;;;;;;6256537;23;20016;-95
2022/12/20 16:07:20;;;;;;;10.60;5.47;;;10.60;99.90;;;;;;6228787;23;20341;-89
2022/12/20 16:09:46;;;;;;;12.07;6.40;;;10.60;99.90;;;;;;6252873;23;20018;-96
2022/12/20 16:12:22;;;;;;;11.88;6.03;;;10.60;99.90;;;;;;6227156;23;20024;-95
2022/12/20 16:14:47;;;;;;;12.77;6.07;;;10.60;99.90;;;;;;6221371;23;20013;-96
2022/12/20 16:17:14;;;;;;;11.50;6.37;;;10.60;99.90;;;;;;6201713;23;20096;-91
2022/12/20 16:19:41;;;;;;;;;;;10.60;99.90;;;;;;6228800;23;20046;-96
2022/12/20 16:22:17;;;;;;;14.38;6.85;;;10.60;99.90;;;;;;6227292;23;19916;-95
2022/12/20 16:24:44;;;;;;;12.70;6.47;;;10.60;99.90;;;;;;6233063;23;20047;-96
2022/12/20 16:27:10;;;;;;;12.10;6.25;;;10.60;99.90;;;;;;6253709;23;20026;-92
2022/12/20 16:29:36;;;;;;;13.52;6.50;;;10.60;99.90;;;;;;6232873;23;20016;-93
2022/12/20 16:32:20;;;;;;;11.65;6.47;;;10.60;99.90;;;;;;6173481;23;20027;-93
2022/12/20 16:34:55;;;;;;;14.98;7.28;;;10.50;99.90;;;;;;6201700;23;20027;-95
2022/12/20 16:37:22;;;;;;;13.32;7.15;;;10.50;99.90;;;;;;6222269;23;20082;-94
2022/12/20 16:39:47;;;;;;;12.00;6.28;;;10.50;99.90;;;;;;6221423;23;20020;-92
2022/12/20 16:42:14;;;;;;;12.93;7.23;;;10.50;99.90;;;;;;6246217;23;20068;-90
2022/12/20 16:44:43;;;;;;;13.65;7.55;;;10.50;99.90;;;;;;6221540;23;20274;-91
2022/12/20 16:50:42;;;;;;;13.57;6.63;;;10.50;99.90;;;;;;6246375;23;20020;-92
2022/12/20 16:53:14;;;;;;;13.98;6.78;;;10.50;99.90;;;;;;6195939;23;20015;-91
2022/12/20 16:55:48;;;;;;;11.55;6.55;;;10.50;99.90;;;;;;6223690;23;20047;-94
2022/12/20 16:58:14;;;;;;;12.13;5.97;;;10.50;99.90;;;;;;6219923;23;20016;-95
2022/12/20 17:00:46;;;;;;;13.73;7.50;;;10.50;99.90;;;;;;6221110;23;20254;-94
2022/12/20 17:03:29;;;;;;;9.80;6.00;;;10.50;99.90;;;;;;6220416;23;20446;-92
2022/12/20 17:06:15;;;;;;;11.63;7.03;;;10.40;99.90;;;;;;6220557;23;20027;-93
2022/12/20 17:08:41;;;;;;;12.27;6.22;;;10.40;99.90;;;;;;6195671;23;20016;-91
2022/12/20 17:11:28;;;;;;;12.18;6.93;;;10.50;99.90;;;;;;6220917;23;20019;-91
2022/12/20 17:13:55;;;;;;;13.38;6.75;;;10.50;99.90;;;;;;6220922;23;20016;-91
2022/12/20 17:16:22;;;;;;;10.43;6.13;;;10.40;99.90;;;;;;6220751;23;20072;-90
2022/12/20 17:18:50;;;;;;;12.68;7.60;;;10.40;99.90;;;;;;6220725;23;20377;-91
2022/12/20 17:21:37;;;;;;;17.27;9.05;;;10.50;99.90;;;;;;6220796;23;20020;-89
2022/12/20 17:24:07;;;;;;;13.18;6.93;;;10.50;99.90;;;;;;6220582;23;20043;-91
2022/12/20 17:26:33;;;;;;;16.88;8.23;;;10.40;99.90;;;;;;6220588;23;20020;-91
2022/12/20 17:28:59;;;;;;;15.10;7.90;;;10.40;99.90;;;;;;6221495;23;20023;-91
2022/12/20 17:34:02;;;;;;;15.15;7.35;;;10.40;99.90;;;;;;6314924;22;20034;-91
2022/12/20 17:41:41;;;;;;;14.38;7.43;;;10.40;99.90;;;;;;6264867;22;20015;-96
2022/12/20 17:44:16;;;;;;;14.02;7.15;;;10.40;99.90;;;;;;6225223;22;20452;-91
2022/12/20 17:46:45;;;;;;;16.00;8.98;;;10.40;99.90;;;;;;6224923;22;20019;-94
2022/12/20 17:49:11;;;;;;;15.57;8.38;;;10.40;99.90;;;;;;6225059;22;20019;-90
2022/12/20 17:51:40;;;;;;;16.48;8.77;;;10.40;99.90;;;;;;6225264;22;20027;-94
2022/12/20 17:58:16;;;;;;;15.30;7.97;;;10.40;99.90;;;;;;6195732;22;20026;-94
2022/12/20 18:00:51;;;;;;;13.95;7.35;;;10.40;99.90;;;;;;6178221;22;20077;-95
2022/12/20 18:10:47;;;;;;;13.00;7.05;;;10.40;99.90;;;;;;6195689;23;20051;-91
2022/12/20 18:13:13;;;;;;;15.53;7.33;;;10.30;99.90;;;;;;6200432;22;20020;-94
2022/12/20 18:15:39;;;;;;;11.27;5.63;;;10.30;99.90;;;;;;6224883;22;20253;-91
2022/12/20 18:19:07;;;;;;;9.10;4.80;;;10.30;99.90;;;;;;6224501;22;20074;-90
2022/12/20 19:09:29;;;;;;;9.90;5.55;;;10.10;99.90;;;;;;6277276;22;20019;-88
2022/12/20 19:11:55;;;;;;;10.75;5.50;;;10.10;99.90;;;;;;6226235;22;20453;-92
2022/12/20 19:14:29;;;;;;;11.30;5.67;;;10.00;99.90;;;;;;6251397;22;20681;-90
2022/12/20 19:16:55;;;;;;;11.32;5.20;;;10.10;99.90;;;;;;6201153;22;20069;-90
2022/12/20 19:19:52;;;;;;;11.00;5.00;;;10.00;99.90;;;;;;6201046;22;20012;-89
2022/12/20 20:17:36;;;;;;;17.48;7.47;;;9.70;99.90;;;;;;6334264;22;20452;-91
2022/12/20 20:20:04;;;;;;;14.38;6.22;;;9.70;99.90;;;;;;6293145;22;20079;-94
2022/12/20 20:22:38;;;;;;;12.77;6.10;;;9.70;99.90;;;;;;6318242;22;20065;-90
2022/12/20 20:25:34;;;;;;;12.70;6.10;;;9.70;99.90;;;;;;6291330;22;20015;-88
2022/12/20 20:28:00;;;;;;;14.15;6.22;;;9.70;99.90;;;;;;6343557;22;20015;-89
2022/12/20 20:30:38;;;;;;;14.65;6.80;;;9.70;99.90;;;;;;6343250;22;20047;-90
2022/12/20 20:33:12;;;;;;;14.80;6.50;;;9.60;99.90;;;;;;6317492;22;20335;-92
2022/12/20 20:35:39;;;;;;;17.85;6.55;;;9.60;99.90;;;;;;6317536;22;20205;-89
2022/12/20 20:38:06;;;;;;;17.58;6.90;;;9.60;99.90;;;;;;6343043;22;20450;-91
2022/12/20 20:40:32;;;;;;;;;;;9.60;99.90;;;;;;6317847;22;20025;-90
2022/12/20 20:45:28;;;;;;;14.45;6.65;;;9.60;99.90;;;;;;6365979;22;20023;-89
2022/12/20 20:47:54;;;;;;;15.32;6.75;;;9.50;99.90;;;;;;6291484;22;20095;-94
2022/12/20 20:50:20;;;;;;;15.60;6.75;;;9.50;99.90;;;;;;6290705;22;20007;-90
2022/12/20 20:52:46;;;;;;;15.00;6.35;;;9.50;99.90;;;;;;6315604;22;20036;-95
2022/12/20 20:55:12;;;;;;;16.63;7.38;;;9.50;99.90;;;;;;6317539;22;20014;-91
2022/12/20 20:57:40;;;;;;;19.63;8.82;;;9.50;99.90;;;;;;6342068;22;20348;-91
2022/12/20 21:00:07;;;;;;;17.95;7.88;;;9.50;99.90;;;;;;6314466;22;20014;-91
2022/12/20 21:26:12;;;;;;;;;;;;;;;;;;;;;
2022/12/20 21:28:53;;;;;;;;;;;;;;;;;;;;;
2022/12/20 21:31:19;;;;;;;17.25;7.28;;;9.10;99.90;;;;;;6253178;22;20016;-91
2022/12/20 21:33:54;;;;;;;16.73;7.50;;;9.10;99.90;;;;;;6225370;22;20050;-92
2022/12/20 21:36:19;;;;;;;17.73;7.57;;;9.10;99.90;;;;;;6250273;22;20020;-88
2022/12/20 21:38:49;;;;;;;24.30;9.20;;;9.10;99.90;;;;;;6250191;22;20022;-94
2022/12/20 21:41:16;;;;;;;19.02;7.47;;;9.10;99.90;;;;;;6250373;22;20445;-91
2022/12/20 21:43:42;;;;;;;20.92;7.65;;;9.00;99.90;;;;;;6250155;22;20026;-90
2022/12/20 21:46:11;;;;;;;17.60;6.38;;;9.00;99.90;;;;;;6250199;22;20027;-90
2022/12/20 21:58:59;;;;;;;13.35;5.55;;;8.90;99.90;;;;;;6276390;22;20456;-89
2022/12/20 22:01:27;;;;;;;16.92;6.82;;;9.00;99.90;;;;;;6233808;22;20023;-89
2022/12/20 22:04:05;;;;;;;15.30;6.72;;;8.90;99.90;;;;;;6223097;22;20011;-91
2022/12/20 22:06:33;;;;;;;21.38;8.00;;;8.90;99.90;;;;;;6224270;22;20020;-89
2022/12/20 22:09:06;;;;;;;16.27;7.10;;;9.00;99.90;;;;;;6225133;22;20015;-92
2022/12/20 22:11:41;;;;;;;12.23;5.88;;;8.90;99.90;;;;;;6224339;22;20074;-91
2022/12/20 22:24:36;;;;;;;12.00;5.65;;;8.90;99.90;;;;;;6245932;22;20020;-90
2022/12/20 22:27:04;;;;;;;14.40;5.93;;;8.90;99.90;;;;;;6171144;23;20024;-90
2022/12/20 22:29:30;;;;;;;11.57;5.33;;;8.90;99.90;;;;;;6194475;23;20012;-91
2022/12/20 22:31:56;;;;;;;12.20;5.43;;;8.90;99.90;;;;;;6194325;23;20023;-91
2022/12/20 22:39:33;;;;;;;12.65;5.28;;;8.80;99.90;;;;;;6282177;22;20023;-90
2022/12/20 22:41:58;;;;;;;15.57;7.37;;;8.80;99.90;;;;;;6229723;22;20322;-92
2022/12/20 22:44:24;;;;;;;17.33;6.50;;;8.80;99.90;;;;;;6229855;22;20007;-92
2022/12/20 22:46:50;;;;;;;15.97;6.43;;;8.70;99.90;;;;;;6229299;22;20023;-91
2022/12/20 22:49:17;;;;;;;15.70;7.17;;;8.70;99.90;;;;;;6254259;22;20015;-91
2022/12/20 22:56:45;;;;;;;16.20;6.28;;;8.70;99.90;;;;;;6307255;22;20019;-90
2022/12/20 22:59:11;;;;;;;16.80;6.57;;;8.70;99.90;;;;;;6280293;22;20102;-92
2022/12/20 23:01:37;;;;;;;16.87;7.07;;;8.70;99.90;;;;;;6280533;22;20487;-92
2022/12/20 23:04:03;;;;;;;18.73;7.37;;;8.70;99.90;;;;;;6280448;22;20061;-91
2022/12/20 23:06:31;;;;;;;19.63;6.80;;;8.70;99.90;;;;;;6229389;22;20050;-94
2022/12/20 23:09:00;;;;;;;17.20;6.57;;;8.70;99.90;;;;;;6280507;22;20015;-94
2022/12/20 23:16:55;;;;;;;17.27;6.90;;;8.50;99.90;;;;;;6276124;22;20066;-93
2022/12/20 23:19:21;;;;;;;17.30;7.33;;;8.50;99.90;;;;;;6224570;22;20367;-92
2022/12/20 23:27:12;;;;;;;14.98;5.63;;;8.50;99.90;;;;;;6300692;22;20348;-93
2022/12/20 23:29:38;;;;;;;15.60;6.77;;;8.50;99.90;;;;;;6231251;22;20019;-94
2022/12/20 23:32:04;;;;;;;14.73;6.20;;;8.50;99.90;;;;;;6256657;22;20015;-91
2022/12/20 23:34:29;;;;;;;13.60;6.60;;;8.50;99.90;;;;;;6256946;22;20367;-92
2022/12/20 23:36:55;;;;;;;15.03;7.07;;;8.40;99.90;;;;;;6256146;22;20015;-89
2022/12/20 23:44:34;;;;;;;15.38;6.57;;;8.40;99.90;;;;;;6308203;22;20467;-92
